Time;durP1;ratioP1;P1;durP2;ratioP2;P2;SDS_P1;SDS_P2;PMS_P1;PMS_P2;Temp;Humidity;BMP_temperature;BMP_pressure;BME280_temperature;BME280_humidity;BME280_pressure;Samples;Min_cycle;Max_cycle;Signal;HPM_P1;HPM_P2
2022/11/08 00:03:04;;;;;;;;;;;;;;;4.44;100.00;100965.47;5576077;31;34269;-70
2022/11/08 00:16:31;;;;;;;;;;;;;;;4.35;100.00;100972.25;5590082;31;34297;-70
2022/11/08 00:19:39;;;;;;;;;;;;;;;4.30;100.00;100969.97;5576006;31;34178;-70
2022/11/08 00:22:46;;;;;;;;;;;;;;;4.26;100.00;100978.19;5589864;31;34574;-70
2022/11/08 00:25:54;;;;;;;;;;;;;;;4.23;100.00;100976.59;5590080;31;34100;-70
2022/11/08 00:29:00;;;;;;;;;;;;;;;4.20;100.00;100973.38;5589902;31;34325;-71
2022/11/08 00:32:10;;;;;;;;;;;;;;;4.16;100.00;100983.28;5589787;31;34621;-70
2022/11/08 00:35:15;;;;;;;;;;;;;;;4.11;100.00;100976.69;5589842;31;34238;-71
2022/11/08 00:38:22;;;;;;;;;;;;;;;4.07;100.00;100977.81;5589687;31;34948;-71
2022/11/08 00:41:28;;;;;;;;;;;;;;;4.03;100.00;100974.59;5575428;31;34374;-70
2022/11/08 00:44:35;;;;;;;;;;;;;;;4.00;100.00;100987.09;5589767;31;34885;-71
2022/11/08 00:47:43;;;;;;;;;;;;;;;4.02;100.00;100975.53;5589469;31;34896;-70
2022/11/08 00:50:51;;;;;;;;;;;;;;;4.03;100.00;100971.97;5576287;31;34412;-70
2022/11/08 00:53:59;;;;;;;;;;;;;;;4.01;100.00;100973.03;5589009;31;34509;-70
2022/11/08 00:57:05;;;;;;;;;;;;;;;3.99;100.00;100969.66;5589398;31;34618;-71
2022/11/08 01:00:11;;;;;;;;;;;;;;;3.92;100.00;100964.84;5589350;31;34297;-70
2022/11/08 01:03:18;;;;;;;;;;;;;;;3.86;100.00;100962.69;5589396;31;34295;-71
2022/11/08 01:06:26;;;;;;;;;;;;;;;3.84;100.00;100966.38;5575735;31;34750;-70
2022/11/08 01:09:36;;;;;;;;;;;;;;;3.86;100.00;100967.94;5589100;31;35039;-71
2022/11/08 01:12:45;;;;;;;;;;;;;;;3.98;100.00;100975.87;5589248;31;34894;-71
2022/11/08 01:15:54;;;;;;;;;;;;;;;3.93;100.00;100982.28;5575081;31;35131;-71
2022/11/08 01:19:01;;;;;;;;;;;;;;;3.85;100.00;100971.53;5589072;31;34872;-71
2022/11/08 01:22:08;;;;;;;;;;;;;;;3.79;100.00;100971.94;5575355;31;34836;-71
2022/11/08 01:25:14;;;;;;;;;;;;;;;3.82;100.00;100966.50;5589280;31;35054;-71
2022/11/08 01:28:22;;;;;;;;;;;;;;;3.87;100.00;100969.59;5589264;31;34371;-71
2022/11/08 01:31:31;;;;;;;;;;;;;;;4.00;100.00;100966.94;5588969;31;34318;-70
2022/11/08 01:34:37;;;;;;;;;;;;;;;4.00;100.00;100966.09;5589194;31;34712;-71
2022/11/08 01:37:44;;;;;;;;;;;;;;;4.00;100.00;100963.47;5588848;31;34288;-71
2022/11/08 01:40:53;;;;;;;;;;;;;;;3.94;100.00;100967.38;5562494;31;35594;-71
2022/11/08 01:44:00;;;;;;;;;;;;;;;3.96;100.00;100962.03;5588754;31;34728;-71
2022/11/08 01:47:09;;;;;;;;;;;;;;;3.99;100.00;100967.03;5588655;31;34699;-71
2022/11/08 01:50:18;;;;;;;;;;;;;;;4.20;100.00;100968.13;5588991;31;34268;-71
2022/11/08 01:53:27;;;;;;;;;;;;;;;4.14;100.00;100960.69;5588386;31;34381;-71
2022/11/08 01:56:34;;;;;;;;;;;;;;;4.08;100.00;100955.87;5588418;31;35067;-71
2022/11/08 01:59:43;;;;;;;;;;;;;;;4.04;100.00;100957.06;5588433;31;34262;-71
2022/11/08 02:02:56;;;;;;;;;;;;;;;3.97;100.00;100958.47;5588333;31;34933;-71
2022/11/08 02:06:04;;;;;;;;;;;;;;;4.00;100.00;100955.59;5589266;31;34937;-71
2022/11/08 02:09:14;;;;;;;;;;;;;;;4.06;100.00;100958.63;5590988;31;34918;-71
2022/11/08 02:12:21;;;;;;;;;;;;;;;4.09;100.00;100958.41;5591088;31;34969;-71
2022/11/08 02:15:26;;;;;;;;;;;;;;;4.15;100.00;100959.75;5591121;31;34821;-71
2022/11/08 02:18:34;;;;;;;;;;;;;;;4.16;100.00;100949.13;5591150;31;34878;-71
2022/11/08 02:21:45;;;;;;;;;;;;;;;4.23;100.00;100954.75;5591098;31;34360;-71
2022/11/08 02:24:53;;;;;;;;;;;;;;;4.12;100.00;100947.66;5590938;31;34984;-71
2022/11/08 02:27:58;;;;;;;;;;;;;;;4.20;100.00;100958.47;5590790;31;34347;-71
2022/11/08 02:31:07;;;;;;;;;;;;;;;4.27;100.00;100950.94;5591180;31;34683;-71
2022/11/08 02:34:14;;;;;;;;;;;;;;;4.26;100.00;100962.44;5590816;31;34303;-71
2022/11/08 02:37:22;;;;;;;;;;;;;;;4.23;100.00;100957.38;5590858;31;34871;-71
2022/11/08 02:40:29;;;;;;;;;;;;;;;4.22;100.00;100951.28;5590922;31;34221;-71
2022/11/08 02:43:37;;;;;;;;;;;;;;;4.08;100.00;100963.75;5590768;31;34866;-71
2022/11/08 02:46:44;;;;;;;;;;;;;;;4.20;100.00;100961.09;5590674;31;34275;-71
2022/11/08 02:49:53;;;;;;;;;;;;;;;4.25;100.00;100964.22;5590583;31;34779;-71
2022/11/08 02:53:00;;;;;;;;;;;;;;;4.30;100.00;100953.38;5590524;31;34473;-71
2022/11/08 02:56:06;;;;;;;;;;;;;;;4.26;100.00;100963.22;5590692;31;34913;-71
2022/11/08 02:59:13;;;;;;;;;;;;;;;4.32;100.00;100956.69;5590453;31;34440;-71
2022/11/08 03:02:18;;;;;;;;;;;;;;;4.32;100.00;100962.78;5590541;31;34363;-71
2022/11/08 03:05:25;;;;;;;;;;;;;;;4.32;100.00;100961.94;5590849;31;34851;-71
2022/11/08 03:08:33;;;;;;;;;;;;;;;4.13;100.00;100964.25;5590489;31;34344;-71
2022/11/08 03:11:38;;;;;;;;;;;;;;;4.26;100.00;100955.34;5590367;31;34238;-71
2022/11/08 03:14:48;;;;;;;;;;;;;;;4.24;100.00;100964.31;5590476;31;34838;-71
2022/11/08 03:18:01;;;;;;;;;;;;;;;4.24;100.00;100961.69;5590308;31;34931;-70
2022/11/08 03:21:07;;;;;;;;;;;;;;;4.27;100.00;100964.91;5590374;31;34931;-70
2022/11/08 03:24:14;;;;;;;;;;;;;;;4.27;100.00;100964.91;5590376;31;35020;-70
2022/11/08 03:27:22;;;;;;;;;;;;;;;4.31;100.00;100971.63;5577123;31;34223;-70
2022/11/08 03:30:29;;;;;;;;;;;;;;;4.34;100.00;100965.31;5576394;31;35325;-71
2022/11/08 03:33:37;;;;;;;;;;;;;;;4.43;100.00;100975.13;5590234;31;34207;-71
2022/11/08 03:36:43;;;;;;;;;;;;;;;4.43;100.00;100969.88;5576455;31;32996;-71
2022/11/08 03:39:51;;;;;;;;;;;;;;;4.45;100.00;100972.41;5590255;31;34914;-72
2022/11/08 03:42:59;;;;;;;;;;;;;;;4.38;100.00;100967.59;5590237;31;34012;-71
2022/11/08 03:46:06;;;;;;;;;;;;;;;4.24;100.00;100966.94;5590327;31;34945;-71
2022/11/08 03:49:13;;;;;;;;;;;;;;;4.23;100.00;100970.50;5576746;31;34276;-70
2022/11/08 03:52:20;;;;;;;;;;;;;;;4.19;100.00;100974.31;5576114;31;34482;-71
2022/11/08 03:55:26;;;;;;;;;;;;;;;4.14;100.00;100969.41;5576527;31;34451;-71
2022/11/08 03:58:32;;;;;;;;;;;;;;;4.35;100.00;100965.22;5590133;31;34841;-71
2022/11/08 04:01:38;;;;;;;;;;;;;;;4.28;100.00;100968.38;5590003;31;35141;-71
2022/11/08 04:04:46;;;;;;;;;;;;;;;4.37;100.00;100968.53;5575857;31;35328;-70
2022/11/08 04:08:00;;;;;;;;;;;;;;;4.51;100.00;100966.66;5539443;31;1607540;-70
2022/11/08 04:21:24;;;;;;;;;;;;;;;4.78;100.00;100967.25;5589921;31;34615;-70
2022/11/08 04:24:30;;;;;;;;;;;;;;;4.77;100.00;100955.03;5589823;31;35035;-70
2022/11/08 04:27:41;;;;;;;;;;;;;;;4.45;100.00;100961.91;5589497;31;34164;-71
2022/11/08 04:30:53;;;;;;;;;;;;;;;4.29;100.00;100959.56;5589832;31;34335;-71
2022/11/08 04:33:58;;;;;;;;;;;;;;;4.27;100.00;100957.03;5589658;31;34475;-70
2022/11/08 04:37:05;;;;;;;;;;;;;;;4.35;100.00;100957.31;5589674;31;34347;-70
2022/11/08 04:40:10;;;;;;;;;;;;;;;4.51;100.00;100943.03;5589845;31;34299;-69
2022/11/08 04:43:17;;;;;;;;;;;;;;;4.57;100.00;100939.94;5563130;31;35054;-70
2022/11/08 04:46:23;;;;;;;;;;;;;;;4.56;100.00;100951.41;5589596;31;34912;-70
2022/11/08 04:49:29;;;;;;;;;;;;;;;4.59;100.00;100940.69;5589556;31;34579;-70
2022/11/08 04:52:36;;;;;;;;;;;;;;;4.70;100.00;100952.03;5589507;31;34575;-70
2022/11/08 04:55:47;;;;;;;;;;;;;;;4.65;100.00;100953.31;5575280;31;34763;-70
2022/11/08 04:58:54;;;;;;;;;;;;;;;4.54;100.00;100943.66;5589348;31;34840;-70
2022/11/08 05:02:02;;;;;;;;;;;;;;;4.60;100.00;100943.16;5589587;31;34955;-70
2022/11/08 05:05:09;;;;;;;;;;;;;;;4.75;100.00;100944.63;5589140;31;34848;-70
2022/11/08 05:08:17;;;;;;;;;;;;;;;4.90;100.00;100947.03;5575097;31;34588;-70
2022/11/08 05:11:24;;;;;;;;;;;;;;;5.06;100.00;100958.91;5589051;31;34388;-71
2022/11/08 05:14:31;;;;;;;;;;;;;;;4.94;100.00;100948.50;5575625;31;34782;-70
2022/11/08 05:17:37;;;;;;;;;;;;;;;5.05;100.00;100954.59;5589153;31;34190;-71
2022/11/08 05:24:07;;;;;;;;;;;;;;;5.05;100.00;100957.22;5588968;31;34263;-71
2022/11/08 05:27:13;;;;;;;;;;;;;;;5.14;100.00;100960.94;5589009;31;34303;-71
2022/11/08 05:30:19;;;;;;;;;;;;;;;5.29;100.00;100958.91;5588814;31;35114;-71
2022/11/08 05:33:26;;;;;;;;;;;;;;;5.29;100.00;100965.00;5588775;31;34725;-71
2022/11/08 05:36:32;;;;;;;;;;;;;;;5.27;100.00;100966.94;5588680;31;35062;-71
2022/11/08 05:39:40;;;;;;;;;;;;;;;5.25;100.00;100960.94;5588704;31;34975;-71
2022/11/08 05:42:44;;;;;;;;;;;;;;;5.12;100.00;100970.75;5576835;31;34898;-71
2022/11/08 05:45:47;;;;;;;;;;;;;;;5.22;100.00;100976.97;5591453;31;34777;-70
2022/11/08 05:48:52;;;;;;;;;;;;;;;5.31;100.00;100972.78;5576757;31;34700;-70
2022/11/08 05:51:57;;;;;;;;;;;;;;;5.51;100.00;100978.16;5590703;31;34776;-70
2022/11/08 05:55:02;;;;;;;;;;;;;;;5.48;100.00;100983.66;5591219;31;34317;-71
2022/11/08 05:58:07;;;;;;;;;;;;;;;5.44;100.00;100984.84;5590862;31;34640;-71
2022/11/08 06:01:12;;;;;;;;;;;;;;;5.47;100.00;100984.59;5591125;31;34859;-71
2022/11/08 06:04:16;;;;;;;;;;;;;;;5.51;100.00;100982.59;5591119;31;34240;-71
2022/11/08 06:07:20;;;;;;;;;;;;;;;5.38;100.00;100981.84;5590807;31;34817;-71
2022/11/08 06:10:25;;;;;;;;;;;;;;;5.38;100.00;100973.97;5590756;31;34915;-71
2022/11/08 06:13:30;;;;;;;;;;;;;;;5.44;100.00;100989.28;5590702;31;34272;-71
2022/11/08 06:16:36;;;;;;;;;;;;;;;5.40;100.00;100980.81;5577023;31;34388;-70
2022/11/08 06:19:40;;;;;;;;;;;;;;;5.40;100.00;100982.59;5590908;31;34393;-71
2022/11/08 06:22:45;;;;;;;;;;;;;;;5.46;100.00;100990.84;5590660;31;34522;-70
2022/11/08 06:25:49;;;;;;;;;;;;;;;5.56;100.00;100990.97;5590513;31;34214;-70
2022/11/08 06:28:54;;;;;;;;;;;;;;;5.64;100.00;100994.66;5577121;31;34254;-70
2022/11/08 06:31:59;;;;;;;;;;;;;;;5.80;100.00;101001.34;5576581;31;34676;-70
2022/11/08 06:35:03;;;;;;;;;;;;;;;5.82;100.00;101004.69;5590593;31;34701;-70
2022/11/08 06:38:07;;;;;;;;;;;;;;;5.90;100.00;100999.69;5590364;31;34573;-69
2022/11/08 06:41:16;;;;;;;;;;;;;;;5.94;100.00;101004.59;5590390;31;34827;-70
2022/11/08 06:44:20;;;;;;;;;;;;;;;5.84;100.00;101003.63;5590556;31;34192;-71
2022/11/08 06:47:23;;;;;;;;;;;;;;;5.95;100.00;101010.69;5590093;31;34740;-70
2022/11/08 06:50:27;;;;;;;;;;;;;;;6.01;100.00;101007.53;5576166;31;35105;-71
2022/11/08 06:53:30;;;;;;;;;;;;;;;6.07;100.00;101010.53;5589798;31;34978;-71
2022/11/08 06:56:34;;;;;;;;;;;;;;;5.88;100.00;101012.97;5589417;31;34487;-71
2022/11/08 06:59:39;;;;;;;;;;;;;;;5.58;100.00;101010.94;5575734;31;35183;-70
2022/11/08 07:02:43;;;;;;;;;;;;;;;5.53;100.00;101010.44;5589262;31;34895;-70
2022/11/08 07:05:47;;;;;;;;;;;;;;;5.58;100.00;101016.19;5589690;31;34278;-70
2022/11/08 07:08:50;;;;;;;;;;;;;;;5.88;100.00;101023.50;5589409;31;34914;-71
2022/11/08 07:11:54;;;;;;;;;;;;;;;6.10;100.00;101023.44;5569366;32;35514;-70
2022/11/08 07:14:57;;;;;;;;;;;;;;;6.27;100.00;101027.37;5568482;32;35033;-70
2022/11/08 07:18:03;;;;;;;;;;;;;;;6.48;100.00;101030.06;5570330;32;34460;-70
2022/11/08 07:21:06;;;;;;;;;;;;;;;6.54;100.00;101019.00;5570056;32;34145;-70
2022/11/08 07:24:10;;;;;;;;;;;;;;;6.66;100.00;101017.16;5569836;32;35035;-72
2022/11/08 07:27:13;;;;;;;;;;;;;;;6.64;100.00;101032.25;5570199;32;34306;-70
2022/11/08 07:30:18;;;;;;;;;;;;;;;6.73;100.00;101016.50;5570262;32;34837;-70
2022/11/08 07:33:21;;;;;;;;;;;;;;;6.82;100.00;101025.47;5569992;32;34880;-71
2022/11/08 07:36:25;;;;;;;;;;;;;;;6.81;100.00;101029.91;5570110;32;34430;-71
2022/11/08 07:39:29;;;;;;;;;;;;;;;6.94;100.00;101029.72;5570015;32;34815;-71
2022/11/08 07:42:36;;;;;;;;;;;;;;;6.90;100.00;101031.78;5570171;32;34922;-71
2022/11/08 07:46:00;;;;;;;;;;;;;;;7.01;100.00;101020.34;5569965;32;34603;-71
2022/11/08 07:49:04;;;;;;;;;;;;;;;7.15;100.00;101030.56;5569417;32;34175;-71
2022/11/08 07:52:07;;;;;;;;;;;;;;;7.11;100.00;101034.41;5569593;32;34737;-71
2022/11/08 07:55:11;;;;;;;;;;;;;;;6.97;100.00;101035.56;5570093;32;34427;-71
2022/11/08 07:58:15;;;;;;;;;;;;;;;7.09;100.00;101038.13;5570238;32;34821;-71
2022/11/08 08:01:20;;;;;;;;;;;;;;;7.22;100.00;101038.75;5570480;32;34306;-71
2022/11/08 08:04:24;;;;;;;;;;;;;;;7.19;100.00;101029.31;5569344;32;35009;-71
2022/11/08 08:07:28;;;;;;;;;;;;;;;6.98;100.00;101028.47;5569501;32;34165;-70
2022/11/08 08:10:32;;;;;;;;;;;;;;;7.31;100.00;101032.72;5569233;32;34186;-71
2022/11/08 08:13:34;;;;;;;;;;;;;;;7.41;100.00;101034.44;5569983;32;34574;-71
2022/11/08 08:16:38;;;;;;;;;;;;;;;7.36;100.00;101031.34;5569930;32;34921;-71
2022/11/08 08:19:40;;;;;;;;;;;;;;;7.63;100.00;101037.88;5569447;32;35306;-70
2022/11/08 08:22:52;;;;;;;;;;;;;;;7.70;100.00;101045.12;5569971;32;34278;-71
2022/11/08 08:25:56;;;;;;;;;;;;;;;7.37;100.00;101040.94;5570062;32;34294;-70
2022/11/08 08:29:00;;;;;;;;;;;;;;;7.28;100.00;101043.53;5570385;32;34886;-71
2022/11/08 08:32:03;;;;;;;;;;;;;;;7.37;100.00;101034.81;5569284;32;34832;-71
2022/11/08 08:35:07;;;;;;;;;;;;;;;7.43;100.00;101034.31;5569063;32;34177;-70
2022/11/08 08:38:13;;;;;;;;;;;;;;;7.55;100.00;101041.16;5569940;32;34606;-71
2022/11/08 08:41:18;;;;;;;;;;;;;;;7.60;100.00;101038.97;5569091;32;34010;-71
2022/11/08 08:44:20;;;;;;;;;;;;;;;7.79;100.00;101044.31;5569966;32;34806;-71
2022/11/08 08:47:26;;;;;;;;;;;;;;;7.91;100.00;101045.06;5569635;32;34787;-71
2022/11/08 08:50:30;;;;;;;;;;;;;;;7.76;100.00;101046.41;5568655;32;34694;-70
2022/11/08 08:53:33;;;;;;;;;;;;;;;7.54;100.00;101050.06;5568548;32;35586;-70
2022/11/08 08:56:36;;;;;;;;;;;;;;;7.61;100.00;101055.62;5569586;32;35046;-70
2022/11/08 08:59:41;;;;;;;;;;;;;;;7.74;100.00;101051.84;5569504;32;34687;-70
2022/11/08 09:03:05;;;;;;;;;;;;;;;7.96;100.00;101053.41;5569539;32;34910;-70
2022/11/08 09:06:08;;;;;;;;;;;;;;;7.91;100.00;101060.06;5555661;32;34535;-70
2022/11/08 09:09:13;;;;;;;;;;;;;;;8.00;100.00;101068.03;5571591;31;34394;-70
2022/11/08 09:12:16;;;;;;;;;;;;;;;7.62;100.00;101071.37;5574841;31;35343;-70
2022/11/08 09:15:20;;;;;;;;;;;;;;;7.41;100.00;101063.47;5592566;31;34206;-70
2022/11/08 09:18:25;;;;;;;;;;;;;;;7.48;100.00;101074.34;5595585;31;34850;-70
2022/11/08 09:21:28;;;;;;;;;;;;;;;7.54;100.00;101073.00;5595310;31;34132;-70
2022/11/08 09:24:35;;;;;;;;;;;;;;;7.66;100.00;101080.69;5581752;31;34363;-70
2022/11/08 09:27:38;;;;;;;;;;;;;;;7.58;100.00;101084.97;5580982;31;34565;-70
2022/11/08 09:30:42;;;;;;;;;;;;;;;7.71;100.00;101075.84;5595132;31;34795;-70
2022/11/08 09:33:48;;;;;;;;;;;;;;;8.00;100.00;101078.59;5581131;31;35173;-70
2022/11/08 09:36:51;;;;;;;;;;;;;;;7.81;100.00;101081.16;5595140;31;34186;-70
2022/11/08 09:39:54;;;;;;;;;;;;;;;7.91;100.00;101078.56;5595179;31;34234;-70
2022/11/08 09:43:04;;;;;;;;;;;;;;;7.54;100.00;101065.91;5594913;31;34439;-71
2022/11/08 09:46:15;;;;;;;;;;;;;;;7.79;100.00;101078.66;5581066;31;34725;-70
2022/11/08 09:49:24;;;;;;;;;;;;;;;7.93;100.00;101066.06;5581491;31;34326;-70
2022/11/08 09:52:27;;;;;;;;;;;;;;;8.08;100.00;101062.09;5594689;31;34629;-71
2022/11/08 09:55:42;;;;;;;;;;;;;;;8.52;100.00;101071.37;5594513;31;34274;-70
2022/11/08 09:58:54;;;;;;;;;;;;;;;8.62;100.00;101075.69;5594661;31;34261;-70
2022/11/08 10:01:57;;;;;;;;;;;;;;;8.94;100.00;101074.59;5594603;31;34402;-70
2022/11/08 10:05:21;;;;;;;;;;;;;;;8.69;100.00;101068.06;5580653;31;34940;-70
2022/11/08 10:08:49;;;;;;;;;;;;;;;8.79;100.00;101070.69;5580306;31;35293;-70
2022/11/08 10:11:58;;;;;;;;;;;;;;;8.88;100.00;101059.28;5580050;31;34828;-70
2022/11/08 10:15:06;;;;;;;;;;;;;;;9.07;100.00;101070.69;5594014;31;35225;-70
2022/11/08 10:18:09;;;;;;;;;;;;;;;9.44;100.00;101062.78;5580479;31;34877;-70
2022/11/08 10:21:22;;;;;;;;;;;;;;;9.53;100.00;101055.81;5593812;31;34322;-71
2022/11/08 10:24:29;;;;;;;;;;;;;;;9.51;100.00;101057.75;5593734;31;34775;-71
2022/11/08 10:27:36;;;;;;;;;;;;;;;9.56;100.00;101052.88;5590726;31;34857;-71
2022/11/08 10:30:43;;;;;;;;;;;;;;;9.85;100.00;101056.22;5576849;31;34901;-71
2022/11/08 10:33:53;;;;;;;;;;;;;;;9.30;100.00;101055.28;5576547;31;34759;-71
2022/11/08 10:37:01;;;;;;;;;;;;;;;9.14;100.00;101050.63;5590554;31;34294;-71
2022/11/08 10:40:26;;;;;;;;;;;;;;;9.92;100.00;101040.59;5576732;31;35426;-70
2022/11/08 10:43:40;;;;;;;;;;;;;;;10.34;100.00;101043.56;5576865;31;34278;-70
2022/11/08 10:46:56;;;;;;;;;;;;;;;10.30;100.00;101037.75;5576102;31;34636;-70
2022/11/08 10:49:59;;;;;;;;;;;;;;;10.40;100.00;101040.31;5590689;31;34656;-70
2022/11/08 10:53:14;;;;;;;;;;;;;;;10.78;100.00;101031.22;5592974;31;34350;-71
2022/11/08 10:56:23;;;;;;;;;;;;;;;11.06;100.00;101034.59;5591617;31;34419;-71
2022/11/08 10:59:30;;;;;;;;;;;;;;;10.66;100.00;101035.06;5576479;31;34882;-72
2022/11/08 11:02:34;;;;;;;;;;;;;;;10.62;100.00;101026.59;5590564;31;34343;-71
2022/11/08 11:05:43;;;;;;;;;;;;;;;11.34;100.00;101023.66;5590791;31;35399;-71
2022/11/08 11:08:49;;;;;;;;;;;;;;;11.07;100.00;101015.84;5564037;31;33079;-71
2022/11/08 11:11:57;;;;;;;;;;;;;;;12.00;100.00;101019.53;5576811;31;34692;-71
2022/11/08 11:15:03;;;;;;;;;;;;;;;13.92;98.22;101022.25;5590239;31;34179;-70
2022/11/08 11:18:17;;;;;;;;;;;;;;;15.12;85.07;101015.41;5590372;31;34399;-71
2022/11/08 11:21:23;;;;;;;;;;;;;;;17.51;74.65;101024.91;5590210;31;34725;-71
2022/11/08 11:24:27;;;;;;;;;;;;;;;19.58;63.11;101016.03;5590095;31;34387;-71
2022/11/08 11:27:33;;;;;;;;;;;;;;;19.77;59.55;101016.00;5576059;31;34491;-70
2022/11/08 11:30:36;;;;;;;;;;;;;;;18.58;61.25;101023.31;5589910;31;34632;-70
2022/11/08 11:33:45;;;;;;;;;;;;;;;13.93;84.50;101009.75;5576168;31;33727;-71
2022/11/08 11:36:53;;;;;;;;;;;;;;;12.93;92.65;101002.31;5575963;31;34317;-71
2022/11/08 11:40:02;;;;;;;;;;;;;;;12.08;99.89;100991.12;5588774;31;34870;-71
2022/11/08 11:43:24;;;;;;;;;;;;;;;12.59;97.54;100999.81;5576232;31;32785;-70
2022/11/08 11:46:47;;;;;;;;;;;;;;;12.96;97.82;100999.34;5576101;31;34399;-70
2022/11/08 11:49:52;;;;;;;;;;;;;;;14.25;89.58;101003.37;5589613;31;35119;-70
2022/11/08 11:52:57;;;;;;;;;;;;;;;14.33;87.46;100996.16;5589993;31;34787;-70
2022/11/08 11:56:04;;;;;;;;;;;;;;;14.51;85.63;100993.25;5589973;31;34326;-69
2022/11/08 11:59:24;;;;;;;;;;;;;;;14.58;85.86;100982.66;5589506;31;34363;-69
2022/11/08 12:02:44;;;;;;;;;;;;;;;14.22;85.88;100977.06;5590253;31;34912;-70
2022/11/08 12:05:47;;;;;;;;;;;;;;;13.70;89.56;100975.00;5575244;31;34162;-70
2022/11/08 12:08:56;;;;;;;;;;;;;;;13.12;94.55;100969.22;5589504;31;34898;-70
2022/11/08 12:12:02;;;;;;;;;;;;;;;12.75;97.80;100972.37;5575454;31;35093;-70
2022/11/08 12:15:22;;;;;;;;;;;;;;;13.02;96.05;100958.72;5575727;31;35127;-70
2022/11/08 12:18:26;;;;;;;;;;;;;;;12.85;97.74;100957.91;5589469;31;34777;-71
2022/11/08 12:22:03;;;;;;;;;;;;;;;12.72;99.04;100957.59;5575171;31;34001;-70
2022/11/08 12:25:13;;;;;;;;;;;;;;;12.53;100.00;100945.44;5575342;31;34218;-69
2022/11/08 12:28:16;;;;;;;;;;;;;;;12.59;100.00;100942.09;5589691;31;34324;-69
2022/11/08 12:31:23;;;;;;;;;;;;;;;12.55;100.00;100937.28;5589283;31;34176;-69
2022/11/08 12:34:42;;;;;;;;;;;;;;;12.66;100.00;100933.44;5575330;31;34504;-69
2022/11/08 12:37:55;;;;;;;;;;;;;;;12.42;100.00;100924.47;5589394;31;34063;-69
2022/11/08 12:41:17;;;;;;;;;;;;;;;12.60;100.00;100919.81;5589365;31;34770;-69
2022/11/08 12:44:40;;;;;;;;;;;;;;;12.68;100.00;100916.31;5589258;31;34623;-69
2022/11/08 12:47:45;;;;;;;;;;;;;;;12.76;100.00;100915.47;5589418;31;34308;-69
2022/11/08 12:50:51;;;;;;;;;;;;;;;12.83;100.00;100916.47;5562197;31;35148;-69
2022/11/08 12:54:06;;;;;;;;;;;;;;;12.76;100.00;100918.13;5575440;31;35352;-69
2022/11/08 12:57:10;;;;;;;;;;;;;;;12.66;100.00;100915.66;5562190;31;34951;-70
2022/11/08 13:00:16;;;;;;;;;;;;;;;12.73;100.00;100911.31;5589302;31;34641;-70
2022/11/08 13:03:35;;;;;;;;;;;;;;;12.80;100.00;100916.78;5589091;31;34253;-70
2022/11/08 13:06:38;;;;;;;;;;;;;;;12.96;100.00;100922.94;5574871;31;34388;-69
2022/11/08 13:09:47;;;;;;;;;;;;;;;13.07;100.00;100919.06;5575069;31;34418;-69
2022/11/08 13:12:54;;;;;;;;;;;;;;;13.17;100.00;100911.72;5574719;31;34418;-70
2022/11/08 13:16:16;;;;;;;;;;;;;;;13.02;100.00;100902.78;5588695;31;34852;-69
2022/11/08 13:19:48;;;;;;;;;;;;;;;12.89;100.00;100900.63;5574750;31;34769;-69
2022/11/08 13:22:59;;;;;;;;;;;;;;;12.96;100.00;100904.28;5575156;31;33018;-69
2022/11/08 13:26:24;;;;;;;;;;;;;;;12.93;100.00;100891.28;5588526;31;35078;-69
2022/11/08 13:29:29;;;;;;;;;;;;;;;12.94;100.00;100892.97;5574960;31;34430;-69
2022/11/08 13:32:42;;;;;;;;;;;;;;;12.99;100.00;100884.47;5588594;31;34395;-69
2022/11/08 13:36:17;;;;;;;;;;;;;;;12.84;100.00;100889.66;5576431;31;34857;-69
2022/11/08 13:39:33;;;;;;;;;;;;;;;12.88;100.00;100890.97;5578511;31;34198;-70
2022/11/08 13:42:39;;;;;;;;;;;;;;;12.86;100.00;100892.16;5588551;31;34204;-70
2022/11/08 13:45:43;;;;;;;;;;;;;;;13.17;100.00;100894.94;5588390;31;34860;-70
2022/11/08 13:49:03;;;;;;;;;;;;;;;13.47;100.00;100899.47;5574508;31;34940;-70
2022/11/08 13:52:26;;;;;;;;;;;;;;;13.38;100.00;100898.66;5574460;31;35471;-70
2022/11/08 13:55:42;;;;;;;;;;;;;;;13.26;100.00;100902.72;5574243;31;33269;-70
2022/11/08 13:58:48;;;;;;;;;;;;;;;13.19;100.00;100900.91;5587956;31;35186;-70
2022/11/08 14:01:56;;;;;;;;;;;;;;;12.97;100.00;100899.78;5574953;31;34952;-69
2022/11/08 14:05:19;;;;;;;;;;;;;;;12.97;100.00;100900.59;5591320;31;34864;-69
2022/11/08 14:08:23;;;;;;;;;;;;;;;12.84;100.00;100894.97;5576944;31;34508;-69
2022/11/08 14:11:26;;;;;;;;;;;;;;;12.61;100.00;100897.53;5590613;31;34334;-69
2022/11/08 14:14:35;;;;;;;;;;;;;;;12.07;100.00;100911.47;5576511;31;33245;-68
2022/11/08 14:17:43;;;;;;;;;;;;;;;11.69;100.00;100912.88;5576144;31;34327;-69
2022/11/08 14:20:49;;;;;;;;;;;;;;;11.15;100.00;100903.53;5577061;31;34776;-69
2022/11/08 14:23:55;;;;;;;;;;;;;;;10.84;100.00;100901.37;5576545;31;32908;-68
2022/11/08 14:26:59;;;;;;;;;;;;;;;10.89;100.00;100898.25;5590998;31;34272;-70
2022/11/08 14:30:10;;;;;;;;;;;;;;;10.88;100.00;100897.44;5576258;31;36615;-68
2022/11/08 14:33:16;;;;;;;;;;;;;;;10.91;100.00;100890.97;5576511;31;32731;-69
2022/11/08 14:36:22;;;;;;;;;;;;;;;10.73;100.00;100891.03;5590610;31;34878;-69
2022/11/08 14:39:31;;;;;;;;;;;;;;;10.51;100.00;100896.00;5590046;31;34883;-69
2022/11/08 14:42:34;;;;;;;;;;;;;;;10.36;100.00;100893.91;5590155;31;34798;-69
2022/11/08 14:45:39;;;;;;;;;;;;;;;10.32;100.00;100891.72;5575700;31;34783;-68
2022/11/08 14:48:47;;;;;;;;;;;;;;;10.19;100.00;100885.97;5575899;31;32717;-69
2022/11/08 14:52:03;;;;;;;;;;;;;;;10.06;100.00;100894.28;5589956;31;34925;-69
2022/11/08 14:55:11;;;;;;;;;;;;;;;9.99;100.00;100896.69;5576354;31;35251;-70
2022/11/08 14:58:14;;;;;;;;;;;;;;;9.94;100.00;100893.66;5576260;31;34169;-69
2022/11/08 15:01:24;;;;;;;;;;;;;;;9.90;100.00;100897.63;5575936;31;34315;-70
2022/11/08 15:04:30;;;;;;;;;;;;;;;9.95;100.00;100899.81;5589931;31;34378;-70
2022/11/08 15:07:36;;;;;;;;;;;;;;;9.89;100.00;100903.06;5589679;31;34851;-69
2022/11/08 15:10:50;;;;;;;;;;;;;;;9.75;100.00;100899.09;5589858;31;34296;-69
2022/11/08 15:13:57;;;;;;;;;;;;;;;9.64;100.00;100904.63;5589320;31;34694;-69
2022/11/08 15:17:02;;;;;;;;;;;;;;;9.57;100.00;100907.03;5575777;31;33933;-69
2022/11/08 15:20:09;;;;;;;;;;;;;;;9.48;100.00;100912.41;5575814;31;34407;-68
2022/11/08 15:23:33;;;;;;;;;;;;;;;9.36;100.00;100911.75;5589797;31;34922;-68
2022/11/08 15:26:36;;;;;;;;;;;;;;;9.38;100.00;100908.97;5588807;31;34842;-68
2022/11/08 15:29:49;;;;;;;;;;;;;;;9.30;100.00;100904.38;5589263;31;34216;-68
2022/11/08 15:32:54;;;;;;;;;;;;;;;9.39;100.00;100913.28;5575564;31;33661;-68
2022/11/08 15:35:59;;;;;;;;;;;;;;;9.18;100.00;100920.59;5575575;31;35035;-69
2022/11/08 15:39:05;;;;;;;;;;;;;;;9.18;100.00;100916.16;5575224;31;35093;-69
2022/11/08 15:42:13;;;;;;;;;;;;;;;9.12;100.00;100927.31;5575144;31;36346;-69
2022/11/08 15:45:20;;;;;;;;;;;;;;;8.97;100.00;100926.94;5563077;31;34692;-69
2022/11/08 15:48:26;;;;;;;;;;;;;;;9.02;100.00;100921.22;5562775;31;34946;-69
2022/11/08 15:51:30;;;;;;;;;;;;;;;8.89;100.00;100936.59;5589182;31;34180;-68
2022/11/08 15:54:34;;;;;;;;;;;;;;;8.62;100.00;100927.56;5588748;31;34325;-70
2022/11/08 15:57:41;;;;;;;;;;;;;;;8.79;100.00;100933.97;5588590;31;34976;-69
2022/11/08 16:00:48;;;;;;;;;;;;;;;8.84;100.00;100937.03;5588713;31;34862;-69
2022/11/08 16:03:53;;;;;;;;;;;;;;;8.68;100.00;100931.47;5588428;31;34370;-69
2022/11/08 16:06:58;;;;;;;;;;;;;;;8.64;100.00;100927.44;5574607;31;35235;-69
2022/11/08 16:10:03;;;;;;;;;;;;;;;8.54;100.00;100931.91;5588093;31;34171;-68
2022/11/08 16:13:16;;;;;;;;;;;;;;;8.40;100.00;100930.53;5588758;31;34209;-70
2022/11/08 16:16:22;;;;;;;;;;;;;;;8.46;100.00;100924.69;5574775;31;34421;-69
2022/11/08 16:19:27;;;;;;;;;;;;;;;8.49;100.00;100926.22;5575262;31;34715;-68
2022/11/08 16:22:33;;;;;;;;;;;;;;;8.43;100.00;100929.41;5575789;31;34320;-70
2022/11/08 16:25:39;;;;;;;;;;;;;;;8.44;100.00;100917.88;5574794;31;33760;-70
2022/11/08 16:28:44;;;;;;;;;;;;;;;8.34;100.00;100922.31;5589492;31;34348;-69